Time;durP1;ratioP1;P1;durP2;ratioP2;P2;SDS_P1;SDS_P2;PMS_P1;PMS_P2;Temp;Humidity;BMP_temperature;BMP_pressure;BME280_temperature;BME280_humidity;BME280_pressure;Samples;Min_cycle;Max_cycle;Signal;HPM_P1;HPM_P2
2022/03/05 00:00:13;;;;;;;;;;;0.10;99.90;;;;;;5117251;27;19976;-74
2022/03/05 00:02:39;;;;;;;;;;;0.10;99.90;;;;;;5093119;28;19942;-74
2022/03/05 00:05:05;;;;;;;;;;;0.10;99.90;;;;;;5111876;28;19916;-73
2022/03/05 00:07:30;;;;;;;;;;;0.10;99.90;;;;;;5093505;28;20193;-74
2022/03/05 00:09:56;;;;;;;;;;;0.10;99.90;;;;;;5093610;28;19954;-76
2022/03/05 00:12:22;;;;;;;;;;;0.10;99.90;;;;;;5111531;28;20332;-73
2022/03/05 00:14:48;;;;;;;;;;;0.10;99.90;;;;;;5112081;28;20049;-74
2022/03/05 00:17:13;;;;;;;;;;;0.20;99.90;;;;;;5112280;28;20390;-75
2022/03/05 00:19:39;;;;;;;;;;;0.10;99.90;;;;;;5093616;28;19960;-73
2022/03/05 00:22:05;;;;;;;;;;;0.10;99.90;;;;;;5092978;28;19920;-75
2022/03/05 00:24:31;;;;;;;;;;;0.00;99.90;;;;;;5111817;28;20361;-75
2022/03/05 00:26:56;;;;;;;;;;;0.00;99.90;;;;;;5093302;28;19959;-75
2022/03/05 00:29:22;;;;;;;;;;;0.00;99.90;;;;;;5111435;28;19911;-73
2022/03/05 00:31:48;;;;;;;;;;;0.10;99.90;;;;;;5093140;28;19996;-74
2022/03/05 00:34:13;;;;;;;;;;;0.00;99.90;;;;;;5093145;28;19967;-74
2022/03/05 00:36:39;;;;;;;;;;;0.00;99.90;;;;;;5111278;28;20023;-74
2022/03/05 00:39:05;;;;;;;;;;;0.00;99.90;;;;;;5093354;28;20297;-74
2022/03/05 00:41:31;;;;;;;;;;;0.00;99.90;;;;;;5093356;28;20282;-74
2022/03/05 00:43:56;;;;;;;;;;;0.00;99.90;;;;;;5111207;28;20000;-74
2022/03/05 00:46:22;;;;;;;;;;;0.00;99.90;;;;;;5092779;28;19920;-74
2022/03/05 00:48:48;;;;;;;;;;;0.00;99.90;;;;;;5093232;28;20006;-76
2022/03/05 00:51:13;;;;;;;;;;;-0.10;99.90;;;;;;5110899;28;19927;-73
2022/03/05 00:53:39;;;;;;;;;;;-0.10;99.90;;;;;;5111112;28;19915;-73
2022/03/05 00:56:04;;;;;;;;;;;-0.10;99.90;;;;;;5092808;28;20267;-73
2022/03/05 00:58:30;;;;;;;;;;;-0.10;99.90;;;;;;5111211;28;19916;-75
2022/03/05 01:00:56;;;;;;;;;;;-0.10;99.90;;;;;;5106357;28;20256;-74
2022/03/05 01:03:22;;;;;;;;;;;-0.10;99.90;;;;;;5131733;28;20322;-75
2022/03/05 01:05:48;;;;;;;;;;;-0.10;99.90;;;;;;5119310;28;20015;-74
2022/03/05 01:08:13;;;;;;;;;;;0.00;99.90;;;;;;5092844;28;19911;-74
2022/03/05 01:10:39;;;;;;;;;;;0.00;99.90;;;;;;5103470;28;20355;-73
2022/03/05 01:13:07;;;;;;;;;;;-0.10;99.90;;;;;;5131151;28;19914;-73
2022/03/05 01:15:33;;;;;;;;;;;-0.10;99.90;;;;;;5102990;28;20446;-73
2022/03/05 01:17:59;;;;;;;;;;;-0.10;99.90;;;;;;5111052;28;19998;-73
2022/03/05 01:20:24;;;;;;;;;;;-0.10;99.90;;;;;;5110959;28;19911;-74
2022/03/05 01:22:50;;;;;;;;;;;-0.10;99.90;;;;;;5110451;28;19915;-75
2022/03/05 01:25:15;;;;;;;;;;;0.00;99.90;;;;;;5092222;28;20268;-75
2022/03/05 01:27:41;;;;;;;;;;;0.00;99.90;;;;;;5092631;28;20003;-73
2022/03/05 01:30:07;;;;;;;;;;;-0.10;99.90;;;;;;5092491;28;19965;-74
2022/03/05 01:32:32;;;;;;;;;;;0.00;99.90;;;;;;5110723;28;20025;-74
2022/03/05 01:34:58;;;;;;;;;;;-0.10;99.90;;;;;;5116162;28;19984;-73
2022/03/05 01:37:24;;;;;;;;;;;-0.10;99.90;;;;;;5126166;28;20348;-74
2022/03/05 01:39:49;;;;;;;;;;;0.00;99.90;;;;;;5120907;27;19995;-74
2022/03/05 01:42:21;;;;;;;;;;;-0.10;99.90;;;;;;5151171;27;20249;-74
2022/03/05 01:44:47;;;;;;;;;;;0.00;99.90;;;;;;5131457;27;19937;-74
2022/03/05 01:47:13;;;;;;;;;;;-0.10;99.90;;;;;;5114845;28;19916;-74
2022/03/05 01:49:39;;;;;;;;;;;-0.10;99.90;;;;;;5114615;28;20348;-74
2022/03/05 01:52:04;;;;;;;;;;;0.00;99.90;;;;;;5114237;28;19924;-74
2022/03/05 01:54:33;;;;;;;;;;;0.00;99.90;;;;;;5095265;28;20376;-75
2022/03/05 01:56:59;;;;;;;;;;;0.00;99.90;;;;;;5096379;28;19977;-74
2022/03/05 01:59:24;;;;;;;;;;;0.00;99.90;;;;;;5101608;27;20286;-72
2022/03/05 02:01:50;;;;;;;;;;;0.00;99.90;;;;;;5096371;28;19912;-74
2022/03/05 02:04:17;;;;;;;;;;;0.00;99.90;;;;;;5096083;28;19915;-73
2022/03/05 02:06:43;;;;;;;;;;;0.00;99.90;;;;;;5095578;28;20680;-73
2022/03/05 02:09:09;;;;;;;;;;;0.00;99.90;;;;;;5096307;28;19912;-73
2022/03/05 02:11:34;;;;;;;;;;;0.00;99.90;;;;;;5095695;28;19919;-73
2022/03/05 02:14:00;;;;;;;;;;;0.10;99.90;;;;;;5095744;28;19977;-74
2022/03/05 02:16:26;;;;;;;;;;;0.10;99.90;;;;;;5113959;28;19951;-74
2022/03/05 02:18:55;;;;;;;;;;;0.00;99.90;;;;;;5114513;28;20230;-75
2022/03/05 02:21:22;;;;;;;;;;;0.00;99.90;;;;;;5113833;28;20234;-76
2022/03/05 02:23:48;;;;;;;;;;;0.00;99.90;;;;;;5095029;28;19919;-74
2022/03/05 02:26:13;;;;;;;;;;;0.00;99.90;;;;;;5095188;28;20311;-73
2022/03/05 02:28:39;;;;;;;;;;;0.00;99.90;;;;;;5113904;28;20002;-73
2022/03/05 02:31:05;;;;;;;;;;;0.00;99.90;;;;;;5113428;28;20439;-74
2022/03/05 02:33:30;;;;;;;;;;;0.00;99.90;;;;;;5095345;28;20007;-74
2022/03/05 02:35:56;;;;;;;;;;;0.10;99.90;;;;;;5113096;28;19999;-73
2022/03/05 02:38:23;;;;;;;;;;;0.10;99.90;;;;;;5095643;28;20348;-74
2022/03/05 02:40:50;;;;;;;;;;;0.10;99.90;;;;;;5107067;27;19919;-74
2022/03/05 02:43:15;;;;;;;;;;;0.00;99.90;;;;;;5115543;27;19960;-74
2022/03/05 02:45:41;;;;;;;;;;;0.10;99.90;;;;;;5114981;27;19963;-74
2022/03/05 02:48:08;;;;;;;;;;;0.10;99.90;;;;;;5134139;27;19907;-75
2022/03/05 02:50:34;;;;;;;;;;;0.20;99.90;;;;;;5123001;27;20549;-73
2022/03/05 02:52:59;;;;;;;;;;;0.20;99.90;;;;;;5112819;28;19930;-73
2022/03/05 02:55:25;;;;;;;;;;;0.20;99.90;;;;;;5112925;28;20418;-73
2022/03/05 02:57:51;;;;;;;;;;;0.20;99.90;;;;;;5113533;28;19998;-73
2022/03/05 03:00:17;;;;;;;;;;;0.20;99.90;;;;;;5107536;27;19916;-74
2022/03/05 03:02:45;;;;;;;;;;;0.20;99.90;;;;;;5114996;27;19984;-75
2022/03/05 03:05:11;;;;;;;;;;;0.10;99.90;;;;;;5107932;28;19915;-73
2022/03/05 03:07:36;;;;;;;;;;;0.10;99.90;;;;;;5112880;28;19911;-73
2022/03/05 03:10:03;;;;;;;;;;;0.10;99.90;;;;;;5094194;28;20411;-74
2022/03/05 03:12:29;;;;;;;;;;;0.10;99.90;;;;;;5112711;28;20253;-73
2022/03/05 03:14:54;;;;;;;;;;;0.10;99.90;;;;;;5117164;27;19972;-74
2022/03/05 03:17:20;;;;;;;;;;;0.10;99.90;;;;;;5133443;27;19911;-74
2022/03/05 03:19:45;;;;;;;;;;;0.10;99.90;;;;;;5132958;27;19922;-74
2022/03/05 03:22:11;;;;;;;;;;;0.20;99.90;;;;;;5115052;27;20479;-74
2022/03/05 03:24:37;;;;;;;;;;;0.20;99.90;;;;;;5146902;27;19923;-74
2022/03/05 03:27:02;;;;;;;;;;;0.20;99.90;;;;;;5094055;28;19926;-74
2022/03/05 03:29:28;;;;;;;;;;;0.20;99.90;;;;;;5112684;28;19912;-74
2022/03/05 03:31:53;;;;;;;;;;;0.10;99.90;;;;;;5112620;28;19915;-74
2022/03/05 03:34:19;;;;;;;;;;;0.20;99.90;;;;;;5112961;28;20048;-75
2022/03/05 03:36:45;;;;;;;;;;;0.10;99.90;;;;;;5093533;28;20256;-74
2022/03/05 03:39:11;;;;;;;;;;;0.10;99.90;;;;;;5112852;28;20263;-74
2022/03/05 03:41:36;;;;;;;;;;;0.00;99.90;;;;;;5093815;28;20002;-74
2022/03/05 03:44:02;;;;;;;;;;;0.10;99.90;;;;;;5112326;28;19912;-73
2022/03/05 03:46:28;;;;;;;;;;;0.10;99.90;;;;;;5093444;28;19964;-74
2022/03/05 03:48:53;;;;;;;;;;;0.10;99.90;;;;;;5094123;28;19918;-73
2022/03/05 03:51:19;;;;;;;;;;;0.10;99.90;;;;;;5111874;28;20268;-74
2022/03/05 03:53:46;;;;;;;;;;;0.10;99.90;;;;;;5112402;28;19919;-74
2022/03/05 03:56:12;;;;;;;;;;;0.10;99.90;;;;;;5111533;28;19908;-74
2022/03/05 03:58:38;;;;;;;;;;;0.10;99.90;;;;;;5112330;28;19916;-74
2022/03/05 04:01:03;;;;;;;;;;;0.10;99.90;;;;;;5131333;27;19952;-74
2022/03/05 04:03:29;;;;;;;;;;;0.10;99.90;;;;;;5113684;27;19919;-73
2022/03/05 04:05:55;;;;;;;;;;;0.10;99.90;;;;;;5131898;27;19919;-73
2022/03/05 04:11:05;;;;;;;;;;;0.10;99.90;;;;;;5117758;27;20374;-74
2022/03/05 04:13:30;;;;;;;;;;;0.10;99.90;;;;;;5111774;28;19919;-74
2022/03/05 04:15:56;;;;;;;;;;;0.20;99.90;;;;;;5124607;27;19907;-74
2022/03/05 04:18:22;;;;;;;;;;;0.10;99.90;;;;;;5132392;27;19923;-75
2022/03/05 04:20:48;;;;;;;;;;;0.10;99.90;;;;;;5131948;27;19915;-74
2022/03/05 04:23:13;;;;;;;;;;;0.10;99.90;;;;;;5132174;27;20006;-74
2022/03/05 04:25:39;;;;;;;;;;;0.10;99.90;;;;;;5120786;27;19911;-74
2022/03/05 04:28:05;;;;;;;;;;;0.10;99.90;;;;;;5111468;28;20006;-74
2022/03/05 04:30:31;;;;;;;;;;;0.10;99.90;;;;;;5093011;28;19955;-75
2022/03/05 04:32:57;;;;;;;;;;;0.10;99.90;;;;;;5092920;28;19947;-74
2022/03/05 04:35:23;;;;;;;;;;;0.20;99.90;;;;;;5092942;28;19912;-75
2022/03/05 04:37:50;;;;;;;;;;;0.30;99.90;;;;;;5111448;28;19947;-73
2022/03/05 04:40:16;;;;;;;;;;;0.10;99.90;;;;;;5092980;28;19961;-74
2022/03/05 04:42:41;;;;;;;;;;;0.20;99.90;;;;;;5093187;28;19912;-75
2022/03/05 04:45:08;;;;;;;;;;;0.20;99.90;;;;;;5111127;28;19913;-74
2022/03/05 04:47:34;;;;;;;;;;;0.20;99.90;;;;;;5092722;28;19916;-73
2022/03/05 04:49:59;;;;;;;;;;;0.20;99.90;;;;;;5111800;28;19912;-74
2022/03/05 04:52:25;;;;;;;;;;;0.20;99.90;;;;;;5111057;28;19967;-74
2022/03/05 04:54:51;;;;;;;;;;;0.20;99.90;;;;;;5111632;28;19916;-74
2022/03/05 04:57:16;;;;;;;;;;;0.20;99.90;;;;;;5092812;28;19983;-73
2022/03/05 04:59:42;;;;;;;;;;;0.20;99.90;;;;;;5095896;28;19926;-74
2022/03/05 05:02:08;;;;;;;;;;;0.20;99.90;;;;;;5131576;28;19964;-74
2022/03/05 05:04:33;;;;;;;;;;;0.20;99.90;;;;;;5129824;28;19962;-74
2022/03/05 05:06:59;;;;;;;;;;;0.10;99.90;;;;;;5110847;28;19911;-74
2022/03/05 05:09:25;;;;;;;;;;;0.20;99.90;;;;;;5111387;28;19927;-75
2022/03/05 05:11:50;;;;;;;;;;;0.20;99.90;;;;;;5093171;28;20287;-75
2022/03/05 05:14:18;;;;;;;;;;;0.20;99.90;;;;;;5112031;28;19916;-73
2022/03/05 05:16:44;;;;;;;;;;;0.20;99.90;;;;;;5114656;28;19943;-74
2022/03/05 05:19:25;;;;;;;;;;;0.20;99.90;;;;;;5096926;28;20363;-73
2022/03/05 05:21:55;;;;;;;;;;;0.30;99.90;;;;;;5096627;28;20399;-74
2022/03/05 05:24:21;;;;;;;;;;;0.30;99.90;;;;;;5115481;28;19916;-73
2022/03/05 05:26:47;;;;;;;;;;;0.30;99.90;;;;;;5134972;27;19919;-74
2022/03/05 05:29:13;;;;;;;;;;;0.30;99.90;;;;;;5135642;27;20083;-74
2022/03/05 05:31:38;;;;;;;;;;;0.30;99.90;;;;;;5115704;27;20367;-73
2022/03/05 05:34:04;;;;;;;;;;;0.30;99.90;;;;;;5096451;28;19920;-74
2022/03/05 05:36:30;;;;;;;;;;;0.30;99.90;;;;;;5132581;27;20371;-75
2022/03/05 05:38:55;;;;;;;;;;;0.30;99.90;;;;;;5116670;27;20427;-75
2022/03/05 05:41:21;;;;;;;;;;;0.30;99.90;;;;;;5099820;28;19907;-73
2022/03/05 05:43:47;;;;;;;;;;;0.30;99.90;;;;;;5096067;28;19979;-74
2022/03/05 05:46:13;;;;;;;;;;;0.30;99.90;;;;;;5114317;28;20314;-74
2022/03/05 05:48:39;;;;;;;;;;;0.30;99.90;;;;;;5095983;28;19916;-74
2022/03/05 05:51:05;;;;;;;;;;;0.30;99.90;;;;;;5113896;28;19922;-73
2022/03/05 05:53:30;;;;;;;;;;;0.30;99.90;;;;;;5095940;28;20015;-74
2022/03/05 05:55:56;;;;;;;;;;;0.30;99.90;;;;;;5095988;28;19980;-73
2022/03/05 05:58:22;;;;;;;;;;;0.30;99.90;;;;;;5114418;28;19921;-73
2022/03/05 06:00:48;;;;;;;;;;;0.30;99.90;;;;;;5119323;27;19998;-76
2022/03/05 06:03:13;;;;;;;;;;;0.40;99.90;;;;;;5095617;28;19915;-74
2022/03/05 06:05:39;;;;;;;;;;;0.40;99.90;;;;;;5113894;28;20312;-74
2022/03/05 06:08:05;;;;;;;;;;;0.40;99.90;;;;;;5095599;28;19946;-74
2022/03/05 06:10:34;;;;;;;;;;;0.30;99.90;;;;;;5095520;28;20293;-73
2022/03/05 06:12:59;;;;;;;;;;;0.30;99.90;;;;;;5095378;28;19908;-74
2022/03/05 06:15:25;;;;;;;;;;;0.30;99.90;;;;;;5113988;28;20355;-75
2022/03/05 06:17:54;;;;;;;;;;;0.40;99.90;;;;;;5113752;28;19943;-74
2022/03/05 06:20:20;;;;;;;;;;;0.40;99.90;;;;;;5113849;28;20294;-73
2022/03/05 06:22:45;;;;;;;;;;;0.40;99.90;;;;;;5095589;28;19912;-74
2022/03/05 06:25:11;;;;;;;;;;;0.40;99.90;;;;;;5095113;28;19955;-74
2022/03/05 06:27:37;;;;;;;;;;;0.50;99.90;;;;;;5113694;28;19912;-74
2022/03/05 06:30:02;;;;;;;;;;;0.40;99.90;;;;;;5094977;28;19923;-74
2022/03/05 06:32:28;;;;;;;;;;;0.50;99.90;;;;;;5113501;28;19908;-73
2022/03/05 06:34:56;;;;;;;;;;;0.50;99.90;;;;;;5113611;28;19938;-74
2022/03/05 06:37:23;;;;;;;;;;;0.50;99.90;;;;;;5095253;28;19907;-74
2022/03/05 06:39:48;;;;;;;;;;;0.50;99.90;;;;;;5112953;28;19964;-74
2022/03/05 06:42:14;;;;;;;;;;;0.50;99.90;;;;;;5095050;28;20014;-73
2022/03/05 06:44:40;;;;;;;;;;;0.50;99.90;;;;;;5097577;27;19920;-74
2022/03/05 06:47:06;;;;;;;;;;;0.50;99.90;;;;;;5115616;27;19919;-74
2022/03/05 06:49:32;;;;;;;;;;;0.60;99.90;;;;;;5132424;27;19915;-73
2022/03/05 06:51:58;;;;;;;;;;;0.60;99.90;;;;;;5094662;28;19920;-75
2022/03/05 06:54:24;;;;;;;;;;;0.60;99.90;;;;;;5113673;28;20451;-74
2022/03/05 06:56:49;;;;;;;;;;;0.70;99.90;;;;;;5112702;28;20006;-74
2022/03/05 06:59:15;;;;;;;;;;;0.70;99.90;;;;;;5099155;27;19922;-74
2022/03/05 07:01:41;;;;;;;;;;;1.20;99.90;;;;;;5095589;28;19943;-73
2022/03/05 07:04:07;;;;;;;;;;;0.70;99.90;;;;;;5112814;28;20324;-73
2022/03/05 07:06:32;;;;;;;;;;;0.70;99.90;;;;;;5094067;28;19912;-74
2022/03/05 07:08:58;;;;;;;;;;;0.70;99.90;;;;;;5094195;28;20058;-73
2022/03/05 07:11:24;;;;;;;;;;;0.70;99.90;;;;;;5112250;28;20367;-74
2022/03/05 07:13:49;;;;;;;;;;;0.70;99.90;;;;;;5112299;28;19916;-74
2022/03/05 07:16:15;;;;;;;;;;;0.70;99.90;;;;;;5128246;27;20350;-73
2022/03/05 07:18:41;;;;;;;;;;;0.70;99.90;;;;;;5132878;27;19920;-75
2022/03/05 07:21:06;;;;;;;;;;;0.80;99.90;;;;;;5118085;27;19965;-75
2022/03/05 07:23:32;;;;;;;;;;;0.80;99.90;;;;;;5094134;28;19916;-73
2022/03/05 07:25:58;;;;;;;;;;;0.70;99.90;;;;;;5112546;28;19957;-73
2022/03/05 07:28:23;;;;;;;;;;;0.80;99.90;;;;;;5094048;28;19973;-74
2022/03/05 07:30:49;;;;;;;;;;;0.80;99.90;;;;;;5093678;28;19908;-74
2022/03/05 07:33:15;;;;;;;;;;;0.80;99.90;;;;;;5093569;28;19963;-74
2022/03/05 07:35:41;;;;;;;;;;;0.80;99.90;;;;;;5111909;28;20339;-73
2022/03/05 07:38:07;;;;;;;;;;;0.80;99.90;;;;;;5093189;28;20279;-74
2022/03/05 07:40:32;;;;;;;;;;;0.90;99.90;;;;;;5093325;28;19908;-74
2022/03/05 07:42:58;;;;;;;;;;;0.90;99.90;;;;;;5093457;28;19946;-75
2022/03/05 07:45:24;;;;;;;;;;;1.00;99.90;;;;;;5093265;28;19922;-73
2022/03/05 07:47:49;;;;;;;;;;;1.00;99.90;;;;;;5093619;28;20275;-73
2022/03/05 07:50:15;;;;;;;;;;;1.00;99.90;;;;;;5092976;28;19916;-73
2022/03/05 07:52:40;;;;;;;;;;;1.00;99.90;;;;;;5092973;28;20379;-73
2022/03/05 07:55:07;;;;;;;;;;;1.10;99.90;;;;;;5093269;28;19916;-74
2022/03/05 07:57:33;;;;;;;;;;;1.00;99.90;;;;;;5093511;28;19911;-74
2022/03/05 07:59:59;;;;;;;;;;;1.00;99.90;;;;;;5122163;27;20278;-73
2022/03/05 08:02:24;;;;;;;;;;;1.00;99.90;;;;;;5131959;27;19908;-74
2022/03/05 08:04:50;;;;;;;;;;;1.10;99.90;;;;;;5109594;28;19923;-74
2022/03/05 08:07:16;;;;;;;;;;;1.10;99.90;;;;;;5111403;28;19911;-73
2022/03/05 08:09:43;;;;;;;;;;;1.10;99.90;;;;;;5111419;28;20287;-75
2022/03/05 08:12:10;;;;;;;;;;;1.20;99.90;;;;;;5093113;28;19914;-74
2022/03/05 08:14:38;;;;;;;;;;;1.20;99.90;;;;;;5093336;28;19938;-74
2022/03/05 08:17:04;;;;;;;;;;;1.30;99.90;;;;;;5111396;28;20371;-75
2022/03/05 08:19:30;;;;;;;;;;;1.40;99.90;;;;;;5110893;28;19980;-74
2022/03/05 08:21:56;;;;;;;;;;;1.40;99.90;;;;;;5093113;28;19908;-75
2022/03/05 08:24:21;;;;;;;;;;;1.40;99.90;;;;;;5092822;28;19920;-74
2022/03/05 08:26:48;;;;;;;;;;;1.40;99.90;;;;;;5092448;28;20014;-74
2022/03/05 08:29:14;;;;;;;;;;;1.50;99.90;;;;;;5092927;28;19980;-75
2022/03/05 08:31:40;;;;;;;;;;;1.50;99.90;;;;;;5110784;28;19915;-74
2022/03/05 08:34:06;;;;;;;;;;;1.60;99.90;;;;;;5092570;28;19916;-73
2022/03/05 08:36:35;;;;;;;;;;;1.60;99.90;;;;;;5092731;28;19908;-74
2022/03/05 08:39:01;;;;;;;;;;;1.60;99.90;;;;;;5111290;28;20522;-74
2022/03/05 08:41:26;;;;;;;;;;;1.60;99.90;;;;;;5110489;28;19908;-73
2022/03/05 08:43:52;;;;;;;;;;;1.60;99.90;;;;;;5111046;28;19953;-73
2022/03/05 08:46:18;;;;;;;;;;;1.60;99.90;;;;;;5108574;28;19915;-75
2022/03/05 08:48:43;;;;;;;;;;;1.60;99.90;;;;;;5132114;27;19919;-74
2022/03/05 08:51:09;;;;;;;;;;;1.80;99.90;;;;;;5116492;27;19924;-74
2022/03/05 08:53:35;;;;;;;;;;;1.80;99.90;;;;;;5135977;27;19926;-75
2022/03/05 08:56:01;;;;;;;;;;;1.90;99.90;;;;;;5141127;27;20283;-74
2022/03/05 08:58:26;;;;;;;;;;;2.00;99.90;;;;;;5135920;27;19922;-75
2022/03/05 09:00:52;;;;;;;;;;;2.10;99.90;;;;;;5098260;28;19908;-75
2022/03/05 09:03:18;;;;;;;;;;;2.10;99.90;;;;;;5096742;28;19916;-73
2022/03/05 09:05:45;;;;;;;;;;;2.10;99.90;;;;;;5096543;28;20420;-74
2022/03/05 09:08:12;;;;;;;;;;;2.00;99.90;;;;;;5115177;28;19916;-74
2022/03/05 09:10:37;;;;;;;;;;;1.90;99.90;;;;;;5114549;28;19918;-74
2022/03/05 09:13:03;;;;;;;;;;;1.90;99.90;;;;;;5096567;28;19991;-75
2022/03/05 09:15:29;;;;;;;;;;;2.00;99.90;;;;;;5105629;27;19907;-74
2022/03/05 09:17:55;;;;;;;;;;;1.90;99.90;;;;;;5135553;27;20380;-73
2022/03/05 09:20:22;;;;;;;;;;;1.90;99.90;;;;;;5133356;27;19907;-74
2022/03/05 09:22:47;;;;;;;;;;;1.90;99.90;;;;;;5116628;27;19911;-73
2022/03/05 09:25:13;;;;;;;;;;;1.90;99.90;;;;;;5135300;27;19916;-74
2022/03/05 09:27:39;;;;;;;;;;;2.00;99.90;;;;;;5135115;27;19907;-74
2022/03/05 09:30:05;;;;;;;;;;;2.00;99.90;;;;;;5128959;27;20367;-73
2022/03/05 09:32:31;;;;;;;;;;;2.00;99.90;;;;;;5114016;28;19915;-74
2022/03/05 09:35:00;;;;;;;;;;;2.00;99.90;;;;;;5095967;28;19920;-74
2022/03/05 09:37:30;;;;;;;;;;;2.00;99.90;;;;;;5114664;28;20290;-74
2022/03/05 09:39:56;;;;;;;;;;;2.00;99.90;;;;;;5096111;28;20007;-75
2022/03/05 09:42:22;;;;;;;;;;;2.00;99.90;;;;;;5095800;28;19908;-73
2022/03/05 09:44:48;;;;;;;;;;;2.00;99.90;;;;;;5095662;28;19920;-75
2022/03/05 09:47:14;;;;;;;;;;;1.90;99.90;;;;;;5096009;28;20065;-74
2022/03/05 09:49:39;;;;;;;;;;;1.90;99.90;;;;;;5114387;28;19916;-75
2022/03/05 09:52:06;;;;;;;;;;;1.90;99.90;;;;;;5113664;28;19926;-73
2022/03/05 09:54:32;;;;;;;;;;;2.00;99.90;;;;;;5114205;28;19915;-72
2022/03/05 09:56:57;;;;;;;;;;;2.00;99.90;;;;;;5113922;28;19922;-74
2022/03/05 09:59:23;;;;;;;;;;;1.90;99.90;;;;;;5119619;27;19916;-76
2022/03/05 10:01:50;;;;;;;;;;;1.90;99.90;;;;;;5094655;28;20007;-74
2022/03/05 10:04:19;;;;;;;;;;;1.90;99.90;;;;;;5114192;28;20375;-74
2022/03/05 10:06:45;;;;;;;;;;;1.80;99.90;;;;;;5113552;28;19963;-73
2022/03/05 10:09:22;;;;;;;;;;;1.80;99.90;;;;;;5095536;28;19939;-74
2022/03/05 10:11:47;;;;;;;;;;;1.80;99.90;;;;;;5094634;28;20006;-74
2022/03/05 10:14:16;;;;;;;;;;;1.70;99.90;;;;;;5095117;28;20003;-75
2022/03/05 10:16:42;;;;;;;;;;;1.70;99.90;;;;;;5095109;28;19998;-75
2022/03/05 10:19:18;;;;;;;;;;;1.70;99.90;;;;;;5113777;28;20003;-75
2022/03/05 10:22:00;;;;;;;;;;;1.70;99.90;;;;;;5094865;28;19920;-74
2022/03/05 10:24:30;;;;;;;;;;;1.70;99.90;;;;;;5094984;28;19907;-74
2022/03/05 10:26:57;;;;;;;;;;;1.70;99.90;;;;;;5113831;28;19927;-75
2022/03/05 10:29:24;;;;;;;;;;;1.70;99.90;;;;;;5094877;28;19955;-75
2022/03/05 10:31:56;;;;;;;;;;;1.70;99.90;;;;;;5094912;28;19927;-75
2022/03/05 10:34:22;;;;;;;;;;;1.70;99.90;;;;;;5113187;28;20002;-76
2022/03/05 10:37:03;;;;;;;;;;;1.70;99.90;;;;;;5113160;28;20440;-75
2022/03/05 10:39:28;;;;;;;;;;;1.80;99.90;;;;;;5094895;28;19907;-74
2022/03/05 10:41:57;;;;;;;;;;;1.90;99.90;;;;;;5094486;28;20331;-74
2022/03/05 10:44:23;;;;;;;;;;;1.90;99.90;;;;;;5094679;28;20296;-74
2022/03/05 10:46:55;;;;;;;;;;;1.90;99.90;;;;;;5095004;28;19920;-72
2022/03/05 10:49:22;;;;;;;;;;;2.00;99.90;;;;;;5113575;28;19911;-73
2022/03/05 10:52:04;;;;;;;;;;;1.90;99.90;;;;;;5113002;28;20379;-75
2022/03/05 10:54:29;;;;;;;;;;;1.90;99.90;;;;;;5094802;28;20010;-74
2022/03/05 10:57:15;;;;;;;;;;;1.80;99.90;;;;;;5094691;28;20003;-74
2022/03/05 10:59:42;;;;;;;;;;;1.80;99.90;;;;;;5098783;27;20335;-73
2022/03/05 11:02:10;;;;;;;;;;;1.80;99.90;;;;;;5094292;28;20018;-72
2022/03/05 11:04:48;;;;;;;;;;;1.90;99.90;;;;;;5094348;28;19907;-74
2022/03/05 11:07:19;;;;;;;;;;;1.90;99.90;;;;;;5112675;28;20050;-74
2022/03/05 11:09:47;;;;;;;;;;;2.00;99.90;;;;;;5094276;28;19957;-73
2022/03/05 11:12:21;;;;;;;;;;;2.00;99.90;;;;;;5093100;28;19959;-75
2022/03/05 11:14:48;;;;;;;;;;;2.00;99.90;;;;;;5094432;28;20015;-75
2022/03/05 11:17:14;;;;;;;;;;;2.00;99.90;;;;;;5094220;28;20368;-74
2022/03/05 11:19:40;;;;;;;;;;;2.10;99.90;;;;;;5112296;28;19939;-74
2022/03/05 11:22:06;;;;;;;;;;;2.20;99.90;;;;;;5112727;28;19920;-74
2022/03/05 11:24:34;;;;;;;;;;;2.20;99.90;;;;;;5093740;28;20406;-75
2022/03/05 11:27:01;;;;;;;;;;;2.30;99.90;;;;;;5112848;28;20264;-74
2022/03/05 11:29:29;;;;;;;;;;;2.20;99.90;;;;;;5094089;28;20278;-73
2022/03/05 11:32:09;;;;;;;;;;;2.30;99.90;;;;;;5094097;28;19971;-74
2022/03/05 11:34:46;;;;;;;;;;;2.20;99.90;;;;;;5111755;28;20031;-74
2022/03/05 11:37:23;;;;;;;;;;;2.10;99.90;;;;;;5076950;28;19923;-75
2022/03/05 11:39:50;;;;;;;;;;;2.10;99.90;;;;;;5112015;28;19954;-75
2022/03/05 11:42:33;;;;;;;;;;;2.10;99.90;;;;;;5093344;28;19959;-73
2022/03/05 11:45:02;;;;;;;;;;;2.10;99.90;;;;;;5093282;28;19915;-74
2022/03/05 11:47:29;;;;;;;;;;;1.50;99.90;;;;;;5112294;28;19938;-74
2022/03/05 11:49:55;;;;;;;;;;;2.20;99.90;;;;;;5111552;28;19908;-74
2022/03/05 11:52:21;;;;;;;;;;;2.20;99.90;;;;;;5111696;28;19927;-74
2022/03/05 11:55:10;;;;;;;;;;;2.20;99.90;;;;;;5093211;28;20355;-73
2022/03/05 11:57:36;;;;;;;;;;;2.20;99.90;;;;;;5080319;28;19916;-75
2022/03/05 12:00:03;;;;;;;;;;;2.30;99.90;;;;;;5098149;28;19908;-74
2022/03/05 12:02:42;;;;;;;;;;;2.30;99.90;;;;;;5111338;28;20265;-74
2022/03/05 12:05:08;;;;;;;;;;;2.40;99.90;;;;;;5092337;28;19968;-74
2022/03/05 12:07:40;;;;;;;;;;;2.20;99.90;;;;;;5111467;28;19920;-75
2022/03/05 12:10:13;;;;;;;;;;;2.40;99.90;;;;;;5092868;28;20359;-75
2022/03/05 12:12:54;;;;;;;;;;;2.40;99.90;;;;;;5111284;28;19998;-74
2022/03/05 12:15:40;;;;;;;;;;;2.40;99.90;;;;;;5110931;28;19923;-74
2022/03/05 12:18:07;;;;;;;;;;;2.40;99.90;;;;;;5093044;28;19911;-74
2022/03/05 12:20:36;;;;;;;;;;;2.30;99.90;;;;;;5102921;27;20002;-74
2022/03/05 12:23:05;;;;;;;;;;;2.30;99.90;;;;;;5131538;27;19911;-74
2022/03/05 12:25:37;;;;;;;;;;;2.30;99.90;;;;;;5103052;28;19924;-74
2022/03/05 12:28:05;;;;;;;;;;;2.30;99.90;;;;;;5111611;28;20282;-74
2022/03/05 12:30:35;;;;;;;;;;;2.30;99.90;;;;;;5092770;28;19957;-73
2022/03/05 12:33:04;;;;;;;;;;;2.30;99.90;;;;;;5092586;28;19998;-75
2022/03/05 12:35:31;;;;;;;;;;;2.30;99.90;;;;;;5092140;28;19915;-74
2022/03/05 12:37:57;;;;;;;;;;;2.30;99.90;;;;;;5092825;28;19946;-75
2022/03/05 12:40:23;;;;;;;;;;;2.20;99.90;;;;;;5101164;28;19907;-75
2022/03/05 12:42:50;;;;;;;;;;;2.20;99.90;;;;;;5113051;28;20287;-74
2022/03/05 12:45:15;;;;;;;;;;;2.20;99.90;;;;;;5123602;28;19908;-74
2022/03/05 12:47:41;;;;;;;;;;;2.20;99.90;;;;;;5111261;28;19915;-75
2022/03/05 12:50:20;;;;;;;;;;;2.10;99.90;;;;;;5092792;28;20292;-75
2022/03/05 12:52:58;;;;;;;;;;;2.00;99.90;;;;;;5110721;28;20042;-75
2022/03/05 12:55:26;;;;;;;;;;;2.00;99.90;;;;;;5110686;28;20332;-73
2022/03/05 12:57:52;;;;;;;;;;;2.00;99.90;;;;;;5092973;28;20354;-73
2022/03/05 13:00:17;;;;;;;;;;;2.00;99.90;;;;;;5115960;28;19959;-74
2022/03/05 13:02:43;;;;;;;;;;;2.00;99.90;;;;;;5092381;28;19916;-74
2022/03/05 13:05:13;;;;;;;;;;;2.00;99.90;;;;;;5092060;28;19915;-74
2022/03/05 13:07:38;;;;;;;;;;;2.00;99.90;;;;;;5110858;28;20547;-74
2022/03/05 13:10:08;;;;;;;;;;;2.10;99.90;;;;;;5110474;28;19915;-74
2022/03/05 13:12:37;;;;;;;;;;;2.10;99.90;;;;;;5110970;28;19916;-73
2022/03/05 13:15:03;;;;;;;;;;;2.10;99.90;;;;;;5110184;28;20343;-74
2022/03/05 13:17:29;;;;;;;;;;;2.10;99.90;;;;;;5092222;28;19967;-73
2022/03/05 13:20:03;;;;;;;;;;;2.10;99.90;;;;;;5110236;28;19947;-74
2022/03/05 13:22:29;;;;;;;;;;;2.10;99.90;;;;;;5110573;28;20351;-74
2022/03/05 13:24:54;;;;;;;;;;;2.10;99.90;;;;;;5110275;28;19976;-74
2022/03/05 13:27:25;;;;;;;;;;;2.20;99.90;;;;;;5092100;28;19920;-75
2022/03/05 13:29:54;;;;;;;;;;;2.10;99.90;;;;;;5092160;28;20384;-75
2022/03/05 13:32:24;;;;;;;;;;;2.20;99.90;;;;;;5110454;28;19970;-73
2022/03/05 13:35:05;;;;;;;;;;;2.20;99.90;;;;;;5091466;28;19911;-73
2022/03/05 13:37:35;;;;;;;;;;;2.10;99.90;;;;;;5095894;28;19916;-74
2022/03/05 13:40:01;;;;;;;;;;;2.10;99.90;;;;;;5119424;27;19939;-73
2022/03/05 13:42:31;;;;;;;;;;;2.00;99.90;;;;;;5116424;27;19915;-73
2022/03/05 13:44:58;;;;;;;;;;;2.10;99.90;;;;;;5133936;27;19954;-73
2022/03/05 13:47:24;;;;;;;;;;;2.00;99.90;;;;;;5150471;27;20409;-73
2022/03/05 13:49:50;;;;;;;;;;;2.00;99.90;;;;;;5130586;27;19935;-74
2022/03/05 13:52:17;;;;;;;;;;;2.00;99.90;;;;;;5113741;28;19955;-74
2022/03/05 13:54:50;;;;;;;;;;;2.00;99.90;;;;;;5095451;28;19915;-76
2022/03/05 13:57:30;;;;;;;;;;;0.70;99.90;;;;;;5114053;28;19991;-74
2022/03/05 14:00:05;;;;;;;;;;;2.00;99.90;;;;;;5119260;27;19911;-74
2022/03/05 14:02:31;;;;;;;;;;;2.00;99.90;;;;;;5095390;28;19920;-74
2022/03/05 14:04:58;;;;;;;;;;;2.00;99.90;;;;;;5095245;28;19908;-78
2022/03/05 14:07:24;;;;;;;;;;;2.00;99.90;;;;;;5095481;28;19920;-75
2022/03/05 14:09:50;;;;;;;;;;;2.00;99.90;;;;;;5113678;28;19911;-76
2022/03/05 14:12:17;;;;;;;;;;;2.00;99.90;;;;;;5113615;28;19942;-74
2022/03/05 14:14:48;;;;;;;;;;;2.00;99.90;;;;;;5094947;28;20256;-74
2022/03/05 14:17:26;;;;;;;;;;;2.00;99.90;;;;;;5095265;28;19919;-75
2022/03/05 14:20:07;;;;;;;;;;;2.00;99.90;;;;;;5095225;28;19961;-74
2022/03/05 14:22:35;;;;;;;;;;;1.90;99.90;;;;;;5113462;28;19916;-74
2022/03/05 14:25:01;;;;;;;;;;;1.90;99.90;;;;;;5113215;28;19907;-75
2022/03/05 14:27:26;;;;;;;;;;;1.90;99.90;;;;;;5095004;28;20018;-73
2022/03/05 14:29:52;;;;;;;;;;;1.90;99.90;;;;;;5113235;28;20002;-73